Time,TemperatureF,DewpointF,PressureIn,WindDirection,WindDirectionDegrees,WindSpeedMPH,WindSpeedGustMPH,Humidity,HourlyPrecipIn,Conditions,Clouds,dailyrainin,SoftwareType,DateUTC
2013-08-14 00:14:00,67.1,66.0,30.07,East,97,0.0,0.0,95,0.00,,,0.00,weatherlink.com 1.10,2013-08-14 04:14:00,
2013-08-14 00:29:00,66.9,66.0,30.07,East,96,0.0,1.0,95,0.00,,,0.00,weatherlink.com 1.10,2013-08-14 04:29:00,
2013-08-14 00:45:00,66.6,65.0,30.07,East,96,0.0,0.0,95,0.00,,,0.00,weatherlink.com 1.10,2013-08-14 04:45:00,
2013-08-14 01:00:00,66.4,65.0,30.07,East,96,0.0,0.0,96,0.00,,,0.00,weatherlink.com 1.10,2013-08-14 05:00:00,
2013-08-14 01:15:00,66.0,65.0,30.07,East,96,0.0,0.0,96,0.00,,,0.00,weatherlink.com 1.10,2013-08-14 05:15:00,
2013-08-14 01:30:00,65.8,65.0,30.08,East,96,0.0,0.0,96,0.00,,,0.00,weatherlink.com 1.10,2013-08-14 05:30:00,
2013-08-14 01:45:00,65.4,64.0,30.07,East,96,0.0,0.0,96,0.00,,,0.00,weatherlink.com 1.10,2013-08-14 05:45:00,
2013-08-14 02:00:00,65.4,64.0,30.07,NNW,340,0.0,1.0,96,0.00,,,0.00,weatherlink.com 1.10,2013-08-14 06:00:00,
2013-08-14 02:15:00,65.2,64.0,30.07,NNW,342,0.0,0.0,96,0.00,,,0.00,weatherlink.com 1.10,2013-08-14 06:15:00,
2013-08-14 02:30:00,65.1,64.0,30.07,NNW,342,0.0,0.0,97,0.00,,,0.00,weatherlink.com 1.10,2013-08-14 06:30:00,
2013-08-14 02:45:00,65.0,64.0,30.07,NNW,342,0.0,0.0,97,0.00,,,0.00,weatherlink.com 1.10,2013-08-14 06:45:00,
2013-08-14 03:00:00,64.8,64.0,30.06,NNW,340,0.0,0.0,97,0.00,,,0.00,weatherlink.com 1.10,2013-08-14 07:00:00,
2013-08-14 03:15:00,64.6,64.0,30.06,NNW,340,0.0,0.0,97,0.00,,,0.00,weatherlink.com 1.10,2013-08-14 07:15:00,
2013-08-14 03:30:00,64.2,63.0,30.06,NNW,340,0.0,0.0,97,0.00,,,0.00,weatherlink.com 1.10,2013-08-14 07:30:00,
2013-08-14 03:45:00,63.9,63.0,30.07,NNW,340,0.0,0.0,97,0.00,,,0.00,weatherlink.com 1.10,2013-08-14 07:45:00,
2013-08-14 04:00:00,63.7,63.0,30.07,NNW,340,0.0,0.0,97,0.00,,,0.00,weatherlink.com 1.10,2013-08-14 08:00:00,
2013-08-14 04:15:00,63.6,63.0,30.07,NNW,340,0.0,0.0,97,0.00,,,0.00,weatherlink.com 1.10,2013-08-14 08:15:00,
2013-08-14 04:30:00,63.3,63.0,30.07,NNW,340,0.0,0.0,97,0.00,,,0.00,weatherlink.com 1.10,2013-08-14 08:30:00,
2013-08-14 04:45:00,63.1,63.0,30.06,NNW,340,0.0,0.0,98,0.00,,,0.00,weatherlink.com 1.10,2013-08-14 08:45:00,
2013-08-14 05:00:00,62.8,62.0,30.06,NNW,340,0.0,0.0,98,0.00,,,0.00,weatherlink.com 1.10,2013-08-14 09:00:00,
2013-08-14 05:15:00,62.7,62.0,30.07,NNW,340,0.0,0.0,98,0.00,,,0.00,weatherlink.com 1.10,2013-08-14 09:15:00,
2013-08-14 05:30:00,62.3,62.0,30.07,NNW,340,0.0,0.0,98,0.00,,,0.00,weatherlink.com 1.10,2013-08-14 09:30:00,
2013-08-14 05:45:00,61.9,61.0,30.07,NNW,340,0.0,0.0,98,0.00,,,0.00,weatherlink.com 1.10,2013-08-14 09:45:00,
2013-08-14 06:00:00,61.8,61.0,30.07,NNW,340,0.0,0.0,98,0.00,,,0.00,weatherlink.com 1.10,2013-08-14 10:00:00,
2013-08-14 06:15:00,61.8,61.0,30.08,NNW,340,0.0,0.0,98,0.00,,,0.00,weatherlink.com 1.10,2013-08-14 10:15:00,
2013-08-14 06:32:00,61.4,61.0,30.09,NNW,340,0.0,0.0,98,0.00,,,0.00,weatherlink.com 1.10,2013-08-14 10:32:00,
2013-08-14 06:45:00,61.2,61.0,30.09,NNW,340,0.0,0.0,98,0.00,,,0.00,weatherlink.com 1.10,2013-08-14 10:45:00,
2013-08-14 07:01:00,61.0,61.0,30.10,NNW,340,0.0,0.0,98,0.00,,,0.00,weatherlink.com 1.10,2013-08-14 11:01:00,
2013-08-14 07:16:00,60.8,60.0,30.10,NNW,340,0.0,0.0,98,0.00,,,0.00,weatherlink.com 1.10,2013-08-14 11:16:00,
2013-08-14 07:31:00,60.8,60.0,30.11,NNW,340,0.0,0.0,98,0.00,,,0.00,weatherlink.com 1.10,2013-08-14 11:31:00,
2013-08-14 07:46:00,60.9,61.0,30.11,NNW,340,0.0,0.0,99,0.00,,,0.00,weatherlink.com 1.10,2013-08-14 11:46:00,
2013-08-14 08:01:00,61.3,61.0,30.12,NNW,340,0.0,0.0,99,0.00,,,0.00,weatherlink.com 1.10,2013-08-14 12:01:00,
2013-08-14 08:16:00,63.0,63.0,30.12,NNW,340,0.0,0.0,99,0.00,,,0.00,weatherlink.com 1.10,2013-08-14 12:16:00,
2013-08-14 08:31:00,65.4,64.0,30.12,NNW,340,0.0,0.0,95,0.00,,,0.00,weatherlink.com 1.10,2013-08-14 12:31:00,
2013-08-14 08:46:00,65.8,64.0,30.13,NNW,340,0.0,0.0,93,0.00,,,0.00,weatherlink.com 1.10,2013-08-14 12:46:00,
2013-08-14 09:01:00,65.8,64.0,30.13,NW,304,0.0,1.0,93,0.00,,,0.00,weatherlink.com 1.10,2013-08-14 13:01:00,
2013-08-14 09:16:00,66.0,64.0,30.13,NW,317,0.0,1.0,92,0.00,,,0.00,weatherlink.com 1.10,2013-08-14 13:16:00,
2013-08-14 09:31:00,67.0,65.0,30.13,ESE,115,1.0,2.0,92,0.00,,,0.00,weatherlink.com 1.10,2013-08-14 13:31:00,
2013-08-14 09:46:00,67.9,65.0,30.13,SW,215,1.0,1.0,90,0.00,,,0.00,weatherlink.com 1.10,2013-08-14 13:46:00,
2013-08-14 10:01:00,68.2,64.0,30.13,SSE,166,0.0,1.0,86,0.00,,,0.00,weatherlink.com 1.10,2013-08-14 14:01:00,
2013-08-14 10:16:00,67.9,64.0,30.14,ESE,113,0.0,2.0,88,0.00,,,0.00,weatherlink.com 1.10,2013-08-14 14:16:00,
2013-08-14 10:31:00,68.3,65.0,30.14,SE,138,0.0,3.0,88,0.00,,,0.00,weatherlink.com 1.10,2013-08-14 14:31:00,
2013-08-14 10:46:00,69.2,66.0,30.14,SW,236,0.0,2.0,88,0.00,,,0.00,weatherlink.com 1.10,2013-08-14 14:46:00,
2013-08-14 11:01:00,70.5,66.0,30.14,SE,132,0.0,3.0,84,0.00,,,0.00,weatherlink.com 1.10,2013-08-14 15:01:00,
2013-08-14 11:16:00,71.7,64.0,30.14,ENE,77,1.0,5.0,76,0.00,,,0.00,weatherlink.com 1.10,2013-08-14 15:16:00,
2013-08-14 11:31:00,73.7,64.0,30.14,SE,142,2.0,4.0,72,0.00,,,0.00,weatherlink.com 1.10,2013-08-14 15:31:00,
2013-08-14 11:46:00,75.1,65.0,30.14,SSE,156,1.0,4.0,71,0.00,,,0.00,weatherlink.com 1.10,2013-08-14 15:46:00,
2013-08-14 12:01:00,75.9,65.0,30.14,East,79,2.0,5.0,68,0.00,,,0.00,weatherlink.com 1.10,2013-08-14 16:01:00,
2013-08-14 12:16:00,78.0,66.0,30.14,SE,138,0.0,3.0,67,0.00,,,0.00,weatherlink.com 1.10,2013-08-14 16:16:00,
2013-08-14 12:31:00,76.6,65.0,30.13,SSE,154,1.0,4.0,67,0.00,,,0.00,weatherlink.com 1.10,2013-08-14 16:31:00,
2013-08-14 12:46:00,76.2,66.0,30.14,SSE,165,1.0,4.0,70,0.00,,,0.00,weatherlink.com 1.10,2013-08-14 16:46:00,
2013-08-14 13:01:00,77.2,65.0,30.13,SSE,167,1.0,7.0,66,0.00,,,0.00,weatherlink.com 1.10,2013-08-14 17:01:00,
2013-08-14 13:16:00,77.7,64.0,30.13,South,170,6.0,8.0,63,0.00,,,0.00,weatherlink.com 1.10,2013-08-14 17:16:00,
2013-08-14 13:31:00,76.9,64.0,30.13,East,91,2.0,7.0,65,0.00,,,0.00,weatherlink.com 1.10,2013-08-14 17:31:00,
2013-08-14 13:46:00,77.0,64.0,30.13,ENE,75,1.0,6.0,64,0.00,,,0.00,weatherlink.com 1.10,2013-08-14 17:46:00,
2013-08-14 14:01:00,76.2,64.0,30.12,SE,146,2.0,6.0,67,0.00,,,0.00,weatherlink.com 1.10,2013-08-14 18:01:00,
2013-08-14 14:16:00,76.2,63.0,30.12,SW,224,2.0,7.0,64,0.00,,,0.00,weatherlink.com 1.10,2013-08-14 18:16:00,
2013-08-14 14:32:00,76.1,63.0,30.12,South,179,1.0,7.0,64,0.00,,,0.00,weatherlink.com 1.10,2013-08-14 18:32:00,
2013-08-14 15:16:00,77.0,61.0,30.12,West,266,2.0,4.0,59,0.00,,,0.00,weatherlink.com 1.10,2013-08-14 19:16:00,
2013-08-14 15:31:00,76.6,62.0,30.12,SW,228,2.0,6.0,61,0.00,,,0.00,weatherlink.com 1.10,2013-08-14 19:31:00,
2013-08-14 15:47:00,76.1,62.0,30.12,SSE,155,4.0,6.0,61,0.00,,,0.00,weatherlink.com 1.10,2013-08-14 19:47:00,
2013-08-14 16:01:00,76.3,64.0,30.11,NE,44,2.0,4.0,65,0.00,,,0.00,weatherlink.com 1.10,2013-08-14 20:01:00,
2013-08-14 16:16:00,76.6,62.0,30.11,SW,214,1.0,5.0,60,0.00,,,0.00,weatherlink.com 1.10,2013-08-14 20:16:00,
2013-08-14 16:32:00,74.7,62.0,30.11,East,84,0.0,4.0,64,0.00,,,0.00,weatherlink.com 1.10,2013-08-14 20:32:00,
2013-08-14 17:02:00,73.2,63.0,30.11,SE,142,3.0,4.0,70,0.00,,,0.00,weatherlink.com 1.10,2013-08-14 21:02:00,
2013-08-14 17:17:00,72.5,61.0,30.11,East,79,2.0,6.0,68,0.00,,,0.00,weatherlink.com 1.10,2013-08-14 21:17:00,
2013-08-14 17:32:00,71.7,62.0,30.12,SSW,206,0.0,4.0,71,0.00,,,0.00,weatherlink.com 1.10,2013-08-14 21:32:00,
2013-08-14 17:47:00,71.2,62.0,30.13,South,176,0.0,2.0,72,0.00,,,0.00,weatherlink.com 1.10,2013-08-14 21:47:00,
2013-08-14 18:02:00,70.4,61.0,30.13,SSW,200,0.0,2.0,71,0.00,,,0.00,weatherlink.com 1.10,2013-08-14 22:02:00,
2013-08-14 18:17:00,69.6,62.0,30.13,SE,145,0.0,1.0,76,0.00,,,0.00,weatherlink.com 1.10,2013-08-14 22:17:00,
2013-08-14 18:32:00,70.1,61.0,30.13,NNE,24,1.0,2.0,72,0.00,,,0.00,weatherlink.com 1.10,2013-08-14 22:32:00,
2013-08-14 18:47:00,70.2,60.0,30.13,SSE,158,0.0,4.0,70,0.00,,,0.00,weatherlink.com 1.10,2013-08-14 22:47:00,
2013-08-14 19:02:00,69.7,59.0,30.14,SSE,153,0.0,4.0,69,0.00,,,0.00,weatherlink.com 1.10,2013-08-14 23:02:00,
2013-08-14 19:17:00,69.0,60.0,30.14,East,79,0.0,1.0,73,0.00,,,0.00,weatherlink.com 1.10,2013-08-14 23:17:00,
2013-08-14 19:32:00,68.1,60.0,30.14,West,264,0.0,0.0,75,0.00,,,0.00,weatherlink.com 1.10,2013-08-14 23:32:00,
2013-08-14 19:47:00,67.8,61.0,30.15,SSE,167,0.0,1.0,79,0.00,,,0.00,weatherlink.com 1.10,2013-08-14 23:47:00,
2013-08-14 20:02:00,66.6,61.0,30.15,SSE,167,0.0,0.0,82,0.00,,,0.00,weatherlink.com 1.10,2013-08-15 00:02:00,
2013-08-14 20:17:00,66.4,60.0,30.16,SSE,166,0.0,0.0,81,0.00,,,0.00,weatherlink.com 1.10,2013-08-15 00:17:00,
2013-08-14 20:32:00,66.2,60.0,30.16,SSE,166,0.0,0.0,80,0.00,,,0.00,weatherlink.com 1.10,2013-08-15 00:32:00,
2013-08-14 20:47:00,65.7,60.0,30.16,SSE,166,0.0,0.0,82,0.00,,,0.00,weatherlink.com 1.10,2013-08-15 00:47:00,
2013-08-14 21:02:00,65.2,61.0,30.17,SSE,166,0.0,0.0,85,0.00,,,0.00,weatherlink.com 1.10,2013-08-15 01:02:00,
2013-08-14 21:17:00,64.7,60.0,30.17,SSE,166,0.0,0.0,84,0.00,,,0.00,weatherlink.com 1.10,2013-08-15 01:17:00,
2013-08-14 21:32:00,64.7,61.0,30.18,SSE,166,0.0,0.0,86,0.00,,,0.00,weatherlink.com 1.10,2013-08-15 01:32:00,
2013-08-14 21:47:00,65.0,60.0,30.18,SSE,166,0.0,0.0,85,0.00,,,0.00,weatherlink.com 1.10,2013-08-15 01:47:00,
2013-08-14 22:02:00,64.9,60.0,30.19,SSE,166,0.0,0.0,84,0.00,,,0.00,weatherlink.com 1.10,2013-08-15 02:02:00,
2013-08-14 22:17:00,64.9,61.0,30.20,SSE,166,0.0,0.0,86,0.00,,,0.00,weatherlink.com 1.10,2013-08-15 02:17:00,
2013-08-14 22:32:00,64.8,61.0,30.21,SSE,166,0.0,0.0,86,0.00,,,0.00,weatherlink.com 1.10,2013-08-15 02:32:00,
2013-08-14 22:47:00,65.1,61.0,30.21,SSE,166,0.0,0.0,87,0.00,,,0.00,weatherlink.com 1.10,2013-08-15 02:47:00,
2013-08-14 23:02:00,64.9,62.0,30.21,SSE,166,0.0,0.0,90,0.00,,,0.00,weatherlink.com 1.10,2013-08-15 03:02:00,
2013-08-14 23:17:00,64.3,61.0,30.22,SSE,166,0.0,1.0,89,0.00,,,0.00,weatherlink.com 1.10,2013-08-15 03:17:00,
2013-08-14 23:32:00,64.0,61.0,30.22,West,274,0.0,1.0,91,0.00,,,0.00,weatherlink.com 1.10,2013-08-15 03:32:00,
2013-08-14 23:47:00,63.3,61.0,30.22,NNW,328,0.0,0.0,93,0.00,,,0.00,weatherlink.com 1.10,2013-08-15 03:47:00,